Time;durP1;ratioP1;P1;durP2;ratioP2;P2;SDS_P1;SDS_P2;PMS_P1;PMS_P2;Temp;Humidity;BMP_temperature;BMP_pressure;BME280_temperature;BME280_humidity;BME280_pressure;Samples;Min_cycle;Max_cycle;Signal;HPM_P1;HPM_P2
2021/12/08 00:00:53;;;;;;;4.82;3.30;;;;;;;-0.82;77.01;93802.94;5132403;27;20110;-74
2021/12/08 00:03:18;;;;;;;4.13;3.08;;;;;;;-0.93;77.01;93785.66;5133364;27;20031;-73
2021/12/08 00:05:44;;;;;;;4.95;3.50;;;;;;;-0.76;77.13;93796.69;5114800;27;20051;-73
2021/12/08 00:08:10;;;;;;;4.75;3.50;;;;;;;-1.04;78.14;93797.38;5132462;27;20389;-74
2021/12/08 00:13:05;;;;;;;4.90;3.30;;;;;;;-0.90;77.91;93805.91;5118220;27;20046;-73
2021/12/08 00:15:32;;;;;;;8.05;4.53;;;;;;;-0.88;77.50;93812.66;5133356;27;20109;-73
2021/12/08 00:17:57;;;;;;;6.03;4.15;;;;;;;-0.91;77.81;93813.66;5133828;27;20027;-73
2021/12/08 00:20:23;;;;;;;5.53;3.47;;;;;;;-0.88;77.27;93821.13;5132166;27;20496;-74
2021/12/08 00:22:49;;;;;;;4.53;3.30;;;;;;;-0.82;77.36;93825.91;5115431;27;20065;-73
2021/12/08 00:25:14;;;;;;;4.90;3.28;;;;;;;-0.71;76.99;93825.31;5133026;27;20030;-73
2021/12/08 00:27:40;;;;;;;5.25;3.25;;;;;;;-0.73;77.09;93827.13;5134244;27;20035;-73
2021/12/08 00:30:06;;;;;;;5.60;4.03;;;;;;;-0.90;77.24;93821.19;5131611;27;20028;-73
2021/12/08 00:32:33;;;;;;;4.15;2.95;;;;;;;-0.78;76.21;93826.53;5131191;27;20035;-73
2021/12/08 00:34:59;;;;;;;4.75;3.20;;;;;;;-0.69;76.33;93829.44;5133054;27;20490;-73
2021/12/08 00:37:26;;;;;;;5.20;2.95;;;;;;;-0.72;76.11;93833.88;5115917;27;20038;-73
2021/12/08 00:39:52;;;;;;;5.10;3.15;;;;;;;-0.66;76.91;93833.53;5131153;27;20023;-73
2021/12/08 00:42:18;;;;;;;4.45;3.35;;;;;;;-0.63;75.81;93840.22;5132068;27;20034;-73
2021/12/08 00:44:44;;;;;;;6.65;4.18;;;;;;;-0.75;76.88;93841.72;5131445;27;20031;-73
2021/12/08 00:47:09;;;;;;;4.60;3.53;;;;;;;-0.78;76.42;93836.75;5131638;27;20038;-73
2021/12/08 00:49:35;;;;;;;4.57;3.28;;;;;;;-0.73;75.50;93835.59;5131141;27;20034;-73
2021/12/08 00:52:00;;;;;;;5.15;3.28;;;;;;;-0.65;74.91;93845.38;5131075;27;20458;-73
2021/12/08 00:54:25;;;;;;;6.18;4.00;;;;;;;-0.74;75.36;93840.78;5130983;27;20102;-73
2021/12/08 00:56:51;;;;;;;4.80;2.97;;;;;;;-0.71;75.32;93850.81;5130162;27;20027;-73
2021/12/08 00:59:16;;;;;;;4.53;3.40;;;;;;;-0.82;75.99;93843.75;5130867;27;20028;-73
2021/12/08 01:01:42;;;;;;;5.13;3.50;;;;;;;-0.74;75.47;93846.72;5133960;27;20034;-73
2021/12/08 01:04:07;;;;;;;5.55;3.72;;;;;;;-1.01;74.97;93838.81;5131346;27;20022;-73
2021/12/08 01:06:33;;;;;;;6.40;3.60;;;;;;;-0.93;75.45;93846.88;5099046;27;20414;-73
2021/12/08 01:08:58;;;;;;;5.47;3.53;;;;;;;-0.88;75.31;93853.47;5113541;27;20400;-73
2021/12/08 01:11:23;;;;;;;4.88;3.03;;;;;;;-0.80;74.02;93846.22;5131838;27;20485;-73
2021/12/08 01:13:49;;;;;;;4.78;3.22;;;;;;;-0.87;75.49;93855.09;5135152;27;20382;-73
2021/12/08 01:16:15;;;;;;;5.18;3.40;;;;;;;-0.82;75.27;93842.94;5113605;27;20070;-73
2021/12/08 01:18:41;;;;;;;7.07;4.28;;;;;;;-0.84;75.71;93865.13;5126407;27;20128;-73
2021/12/08 01:21:07;;;;;;;6.18;4.22;;;;;;;-0.92;74.99;93858.72;5113304;27;20467;-73
2021/12/08 01:23:33;;;;;;;5.95;4.07;;;;;;;-0.85;76.18;93864.31;5130416;27;20025;-73
2021/12/08 01:25:58;;;;;;;5.68;3.75;;;;;;;-0.81;75.20;93854.75;5109336;27;20079;-73
2021/12/08 01:28:24;;;;;;;7.18;4.13;;;;;;;-0.90;74.36;93840.78;5134867;27;20485;-73
2021/12/08 01:30:50;;;;;;;8.20;5.30;;;;;;;-0.69;74.47;93854.13;5130808;27;20027;-73
2021/12/08 01:33:16;;;;;;;6.65;4.80;;;;;;;-0.73;74.90;93861.09;5133255;27;20026;-74
2021/12/08 01:35:42;;;;;;;7.05;4.38;;;;;;;-0.67;74.78;93854.84;5109912;28;20019;-73
2021/12/08 01:38:07;;;;;;;5.82;3.97;;;;;;;-0.68;74.27;93858.31;5128506;27;20027;-73
2021/12/08 01:40:33;;;;;;;6.88;4.28;;;;;;;-0.74;74.42;93859.47;5113039;27;20428;-73
2021/12/08 01:43:00;;;;;;;8.60;4.70;;;;;;;-0.76;74.95;93853.59;5106856;28;20089;-73
2021/12/08 01:48:13;;;;;;;6.22;3.78;;;;;;;-0.77;73.82;93876.66;5129364;27;20112;-73
2021/12/08 01:50:39;;;;;;;9.85;6.97;;;;;;;-0.74;74.40;93867.13;5129880;27;20066;-73
2021/12/08 01:53:05;;;;;;;7.07;5.00;;;;;;;-0.78;75.32;93867.34;5112892;27;20062;-74
2021/12/08 01:55:31;;;;;;;6.15;4.47;;;;;;;-0.67;74.42;93877.78;5129559;27;20386;-73
2021/12/08 01:57:56;;;;;;;7.60;5.20;;;;;;;-0.74;74.22;93874.75;5131806;27;20053;-73
2021/12/08 02:00:31;;;;;;;7.40;4.80;;;;;;;-0.74;74.62;93876.50;5114811;27;20035;-73
2021/12/08 02:02:56;;;;;;;8.35;5.07;;;;;;;-0.68;75.18;93882.06;5117513;27;20084;-73
2021/12/08 02:05:22;;;;;;;8.98;5.20;;;;;;;-0.64;74.65;93887.88;5131051;27;20031;-73
2021/12/08 02:07:48;;;;;;;8.40;5.90;;;;;;;-0.71;74.84;93874.59;5128845;27;20047;-73
2021/12/08 02:10:14;;;;;;;9.98;6.28;;;;;;;-0.71;73.79;93882.25;5112427;27;20027;-73
2021/12/08 02:12:41;;;;;;;9.13;5.93;;;;;;;-0.62;73.13;93878.38;5136442;27;20458;-73
2021/12/08 02:15:08;;;;;;;8.95;5.90;;;;;;;-0.61;74.15;93891.94;5129975;27;20027;-73
2021/12/08 02:17:33;;;;;;;8.88;4.95;;;;;;;-0.58;73.35;93900.28;5129985;27;20042;-73
2021/12/08 02:19:59;;;;;;;10.35;6.03;;;;;;;-0.65;74.31;93886.19;5108987;28;20040;-73
2021/12/08 02:22:24;;;;;;;8.68;5.78;;;;;;;-0.70;74.33;93888.16;5110636;27;20031;-73
2021/12/08 02:24:50;;;;;;;8.60;5.45;;;;;;;-0.72;74.89;93890.81;5129579;27;20031;-73
2021/12/08 02:27:15;;;;;;;9.50;6.43;;;;;;;-0.64;74.39;93892.13;5132920;27;20027;-73
2021/12/08 02:29:52;;;;;;;11.00;7.30;;;;;;;-0.65;74.43;93904.06;5128470;27;20401;-73
2021/12/08 02:48:27;;;;;;;13.05;7.47;;;;;;;-0.61;74.36;93908.09;5129846;27;20023;-73
2021/12/08 02:50:52;;;;;;;13.00;8.13;;;;;;;-0.71;75.69;93909.50;5129624;28;20138;-74
2021/12/08 02:53:18;;;;;;;13.90;8.48;;;;;;;-0.83;74.94;93910.16;5111423;28;20420;-73
2021/12/08 02:55:43;;;;;;;13.93;8.38;;;;;;;-0.72;75.58;93912.97;5111182;28;20526;-73
2021/12/08 02:58:09;;;;;;;14.75;8.95;;;;;;;-0.77;74.93;93917.47;5111181;28;20408;-73
2021/12/08 03:00:37;;;;;;;14.98;8.75;;;;;;;-0.72;75.11;93923.16;5110982;28;20031;-73
2021/12/08 03:03:03;;;;;;;16.75;9.32;;;;;;;-0.66;74.96;93922.00;5122964;28;20027;-73
2021/12/08 03:05:29;;;;;;;16.75;9.65;;;;;;;-0.67;75.13;93923.72;5128194;27;20033;-73
2021/12/08 03:07:54;;;;;;;18.40;9.75;;;;;;;-0.66;75.23;93917.72;5153874;27;20473;-73
2021/12/08 03:10:25;;;;;;;16.50;10.38;;;;;;;-0.73;75.15;93914.66;5134099;27;20038;-74
2021/12/08 03:12:50;;;;;;;16.13;9.67;;;;;;;-0.64;75.15;93922.72;5134457;27;20416;-73
2021/12/08 03:15:16;;;;;;;17.67;11.18;;;;;;;-0.71;75.29;93917.97;5117297;27;20035;-73
2021/12/08 03:17:41;;;;;;;20.23;11.00;;;;;;;-0.65;75.41;93916.81;5117237;27;20173;-73
2021/12/08 03:20:09;;;;;;;18.70;11.05;;;;;;;-0.63;75.73;93920.09;5118904;27;20457;-73
2021/12/08 03:22:40;;;;;;;18.25;11.15;;;;;;;-0.70;75.43;93918.78;5137681;27;20139;-74
2021/12/08 03:25:08;;;;;;;20.52;10.98;;;;;;;-0.68;75.28;93928.00;5138016;27;20122;-73
2021/12/08 03:27:37;;;;;;;21.30;12.55;;;;;;;-0.75;76.07;93921.59;5154836;27;20037;-73
2021/12/08 03:30:21;;;;;;;19.40;12.13;;;;;;;-0.73;75.86;93932.50;5137869;27;20033;-73
2021/12/08 03:32:46;;;;;;;20.23;11.63;;;;;;;-0.70;75.50;93931.53;5155037;27;20114;-73
2021/12/08 03:35:14;;;;;;;20.45;11.38;;;;;;;-0.58;74.77;93933.44;5134833;27;20039;-73
2021/12/08 03:37:42;;;;;;;19.15;11.15;;;;;;;-0.64;75.38;93927.84;5155279;27;20045;-73
2021/12/08 03:40:12;;;;;;;20.70;11.80;;;;;;;-0.59;76.30;93943.72;5131080;27;20090;-73
2021/12/08 03:42:39;;;;;;;21.65;12.57;;;;;;;-0.57;75.95;93945.28;5117293;27;20046;-73
2021/12/08 03:45:10;;;;;;;23.27;13.55;;;;;;;-0.68;76.03;93942.47;5116527;27;20023;-73
2021/12/08 03:47:38;;;;;;;;;;;;;;;-0.56;75.80;93953.75;5117313;27;20043;-73
2021/12/08 03:50:04;;;;;;;23.02;12.05;;;;;;;-0.63;75.72;93950.72;5133528;27;20285;-73
2021/12/08 03:52:30;;;;;;;19.60;11.48;;;;;;;-0.65;75.44;93956.81;5133311;27;20035;-73
2021/12/08 03:54:55;;;;;;;21.40;12.80;;;;;;;-0.55;76.49;93957.97;5133354;27;20120;-73
2021/12/08 03:57:21;;;;;;;22.17;12.20;;;;;;;-0.51;75.20;93960.25;5134988;27;20032;-73
2021/12/08 03:59:46;;;;;;;22.83;13.57;;;;;;;-0.52;75.44;93962.91;5133301;27;20110;-73
2021/12/08 04:02:12;;;;;;;18.75;11.52;;;;;;;-0.55;75.96;93966.44;5134801;27;20107;-73
2021/12/08 04:04:44;;;;;;;25.63;13.95;;;;;;;-0.50;75.57;93966.22;5133297;27;20015;-73
2021/12/08 04:07:12;;;;;;;25.85;15.07;;;;;;;-0.53;74.94;93969.75;5129719;27;20048;-73
2021/12/08 04:09:42;;;;;;;23.70;15.15;;;;;;;-0.55;76.05;93979.22;5126586;27;20048;-73
2021/12/08 04:12:09;;;;;;;26.10;16.98;;;;;;;-0.52;74.75;93978.22;5137462;27;20182;-73
2021/12/08 04:14:37;;;;;;;29.17;17.45;;;;;;;-0.57;74.56;93965.69;5135601;27;20114;-73
2021/12/08 04:17:11;;;;;;;29.73;21.60;;;;;;;-0.51;74.56;93978.13;5114973;27;20035;-73
2021/12/08 04:19:37;;;;;;;29.33;19.15;;;;;;;-0.63;75.37;93980.53;5134197;27;20069;-73
2021/12/08 04:22:13;;;;;;;28.27;16.88;;;;;;;-0.56;75.90;93980.09;5115984;27;20522;-73
2021/12/08 04:24:40;;;;;;;23.25;14.38;;;;;;;-0.59;75.97;93985.34;5133013;27;20050;-73
2021/12/08 04:27:08;;;;;;;28.20;17.90;;;;;;;-0.64;75.85;93974.59;5078453;28;20417;-73
2021/12/08 04:29:35;;;;;;;50.00;27.50;;;;;;;-0.53;74.84;93974.00;5112106;28;20115;-73
2021/12/08 04:32:02;;;;;;;35.60;23.25;;;;;;;-0.50;74.90;93978.97;5095096;28;20043;-73
2021/12/08 04:34:32;;;;;;;33.03;18.92;;;;;;;-0.47;74.26;93982.19;5112064;28;20026;-73
2021/12/08 04:37:03;;;;;;;27.58;16.05;;;;;;;-0.56;74.34;93975.00;5113613;28;20036;-73
2021/12/08 04:42:42;;;;;;;35.50;20.83;;;;;;;-0.58;75.40;94001.53;5091093;28;20055;-74
2021/12/08 04:45:13;;;;;;;31.23;19.08;;;;;;;-0.56;75.32;94000.50;5112101;28;20116;-73
2021/12/08 04:48:02;;;;;;;33.60;20.95;;;;;;;-0.48;74.75;93995.81;5112179;28;20455;-73
2021/12/08 04:50:42;;;;;;;32.58;19.33;;;;;;;-0.58;75.00;94015.09;5111612;28;20118;-74
2021/12/08 05:01:23;;;;;;;30.60;19.95;;;;;;;-0.47;74.95;94022.19;5111796;28;20100;-73
2021/12/08 05:04:10;;;;;;;30.95;18.40;;;;;;;-0.53;75.16;94020.78;5112778;28;20481;-73
2021/12/08 05:06:50;;;;;;;34.55;19.92;;;;;;;-0.53;75.40;94023.34;5111626;28;20154;-73
2021/12/08 05:09:19;;;;;;;26.98;15.60;;;;;;;-0.46;75.08;94028.94;5117675;27;20015;-74
2021/12/08 05:11:52;;;;;;;27.65;15.95;;;;;;;-0.42;75.18;94037.25;5112444;27;20045;-73
2021/12/08 05:14:25;;;;;;;28.73;15.52;;;;;;;-0.53;75.54;94038.66;5151726;27;20023;-73
2021/12/08 05:16:55;;;;;;;30.20;16.60;;;;;;;-0.59;75.49;94038.13;5133388;27;20413;-74
2021/12/08 05:19:23;;;;;;;27.48;16.17;;;;;;;-0.62;75.36;94039.09;5131816;27;20016;-74
2021/12/08 05:21:59;;;;;;;29.80;17.15;;;;;;;-0.62;74.94;94041.66;5114647;27;20037;-73
2021/12/08 05:24:32;;;;;;;29.27;15.70;;;;;;;-0.61;75.70;94035.66;5114673;27;20051;-73
2021/12/08 05:27:04;;;;;;;30.42;17.73;;;;;;;-0.58;75.61;94044.88;5121264;27;20031;-73
2021/12/08 05:29:55;;;;;;;33.67;19.30;;;;;;;-0.57;74.79;94031.22;5153215;27;20136;-73
2021/12/08 05:32:20;;;;;;;27.90;17.65;;;;;;;-0.59;75.50;94046.59;5152478;27;20042;-74
2021/12/08 05:34:46;;;;;;;32.72;17.98;;;;;;;-0.64;75.98;94053.69;5153396;27;20031;-73
2021/12/08 05:37:12;;;;;;;29.30;16.25;;;;;;;-0.51;75.63;94053.84;5152272;27;20026;-73
2021/12/08 05:39:38;;;;;;;27.00;15.55;;;;;;;-0.56;75.71;94046.44;5152039;27;20492;-73
2021/12/08 05:42:07;;;;;;;32.75;16.60;;;;;;;-0.62;75.55;94049.31;5152061;27;20082;-73
2021/12/08 05:44:32;;;;;;;32.67;17.10;;;;;;;-0.65;75.76;94057.13;5134537;27;20465;-73
2021/12/08 05:46:59;;;;;;;25.98;15.05;;;;;;;-0.70;76.02;94048.88;5152018;27;20055;-73
2021/12/08 05:49:24;;;;;;;33.67;17.40;;;;;;;-0.75;76.29;94049.13;5151900;27;20037;-73
2021/12/08 05:51:51;;;;;;;28.48;15.73;;;;;;;-0.63;76.36;94060.41;5116048;27;20428;-73
2021/12/08 05:54:30;;;;;;;34.10;18.38;;;;;;;-0.66;75.76;94067.41;5129004;27;20081;-73
2021/12/08 05:56:56;;;;;;;27.88;15.98;;;;;;;-0.62;76.22;94063.78;5112722;27;20495;-73
2021/12/08 05:59:21;;;;;;;31.58;16.98;;;;;;;-0.66;75.61;94075.88;5128869;27;20027;-73
2021/12/08 06:02:03;;;;;;;30.25;17.45;;;;;;;-0.60;75.41;94078.13;5103545;28;20042;-73
2021/12/08 06:04:29;;;;;;;32.30;18.52;;;;;;;-0.57;75.50;94077.16;5137513;27;20027;-75
2021/12/08 06:06:55;;;;;;;39.15;19.05;;;;;;;-0.57;75.57;94080.50;5106371;27;20048;-75
2021/12/08 06:09:21;;;;;;;57.92;24.52;;;;;;;-0.89;76.58;94074.50;5119533;27;20035;-73
2021/12/08 06:11:46;;;;;;;38.58;19.52;;;;;;;-0.94;76.66;94087.47;5123994;27;20489;-73
2021/12/08 06:14:12;;;;;;;67.65;28.52;;;;;;;-0.84;76.66;94089.56;5122397;27;20052;-73
2021/12/08 06:16:38;;;;;;;38.78;20.48;;;;;;;-0.77;76.29;94101.94;5127629;27;20050;-73
2021/12/08 06:19:06;;;;;;;35.38;19.17;;;;;;;-0.70;75.97;94105.00;5093164;28;20081;-73
2021/12/08 06:21:31;;;;;;;36.80;19.35;;;;;;;-0.69;76.35;94109.22;5119405;27;20608;-74
2021/12/08 06:23:57;;;;;;;39.20;21.10;;;;;;;-0.70;76.44;94110.94;5108918;28;20027;-73
2021/12/08 06:26:24;;;;;;;42.38;19.77;;;;;;;-0.71;75.82;94116.94;5104096;27;20139;-74
2021/12/08 06:28:50;;;;;;;50.53;23.95;;;;;;;-0.69;76.50;94132.16;5108146;28;20176;-74
2021/12/08 06:31:16;;;;;;;49.85;24.80;;;;;;;-0.61;75.75;94131.75;5117211;27;20478;-74
2021/12/08 06:33:41;;;;;;;44.80;23.23;;;;;;;-0.60;76.20;94129.16;5115289;28;20050;-74
2021/12/08 06:36:12;;;;;;;34.40;18.35;;;;;;;-0.57;75.45;94129.00;5123412;28;20529;-74
2021/12/08 06:38:38;;;;;;;26.40;14.98;;;;;;;-0.47;75.24;94119.97;5127951;27;20460;-75
2021/12/08 06:41:16;;;;;;;33.10;17.35;;;;;;;-0.57;75.47;94118.78;5117874;27;20036;-74
2021/12/08 06:43:48;;;;;;;30.60;15.13;;;;;;;-0.60;75.11;94116.41;5121082;27;20038;-78
2021/12/08 06:46:14;;;;;;;28.42;15.30;;;;;;;-0.58;75.06;94124.81;5092037;27;20031;-79
2021/12/08 06:48:45;;;;;;;27.63;13.70;;;;;;;-0.57;74.87;94123.06;5119414;27;20129;-75
2021/12/08 06:51:13;;;;;;;33.20;17.17;;;;;;;-0.65;75.32;94114.97;5117093;27;20501;-80
2021/12/08 06:53:39;;;;;;;28.45;14.75;;;;;;;-0.68;75.20;94132.06;5123281;27;20119;-78
2021/12/08 06:56:19;;;;;;;30.88;15.48;;;;;;;-0.68;74.78;94133.81;5130989;27;20432;-80
2021/12/08 06:58:49;;;;;;;28.08;15.70;;;;;;;-0.66;74.41;94126.91;5109673;27;20028;-78
2021/12/08 07:01:40;;;;;;;32.17;17.20;;;;;;;-0.55;73.95;94127.19;5115595;27;20473;-81
2021/12/08 07:07:00;;;;;;;38.80;20.48;;;;;;;-0.62;74.32;94105.44;5120745;27;20058;-75
2021/12/08 07:09:57;;;;;;;45.95;24.33;;;;;;;-0.58;74.55;94122.25;5125610;27;20480;-76
2021/12/08 07:12:25;;;;;;;29.33;16.02;;;;;;;-0.60;73.67;94133.44;5117835;27;20051;-76
2021/12/08 07:14:55;;;;;;;31.13;16.40;;;;;;;-0.64;74.21;94132.78;5128223;27;20031;-78
2021/12/08 07:17:22;;;;;;;27.33;15.77;;;;;;;-0.66;74.37;94139.66;5097550;27;20043;-79
2021/12/08 07:20:02;;;;;;;27.15;15.50;;;;;;;-0.57;73.86;94138.38;5091683;27;20381;-76
2021/12/08 07:22:28;;;;;;;28.88;16.50;;;;;;;-0.61;74.53;94145.38;5102060;27;20397;-77
2021/12/08 07:24:54;;;;;;;30.38;18.52;;;;;;;-0.63;74.47;94143.78;5091475;28;20048;-79
2021/12/08 07:27:22;;;;;;;34.80;18.55;;;;;;;-0.60;74.68;94144.47;5093728;28;20039;-79
2021/12/08 07:29:48;;;;;;;30.90;17.08;;;;;;;-0.59;74.22;94153.75;5127389;27;20027;-79
2021/12/08 07:32:18;;;;;;;39.03;19.73;;;;;;;-0.74;74.64;94159.63;5129056;27;20027;-82
2021/12/08 07:34:43;;;;;;;37.35;19.73;;;;;;;-0.69;74.62;94161.06;5128180;27;20023;-79
2021/12/08 07:37:13;;;;;;;37.97;20.40;;;;;;;-0.60;74.38;94159.75;5114987;27;20135;-78
2021/12/08 07:39:44;;;;;;;32.80;17.95;;;;;;;-0.64;74.59;94160.84;5120734;27;20107;-78
2021/12/08 07:42:34;;;;;;;33.67;18.48;;;;;;;-0.52;73.99;94167.88;5105940;27;20036;-78
2021/12/08 07:45:02;;;;;;;31.67;17.98;;;;;;;-0.61;74.14;94163.22;5115481;27;20052;-79
2021/12/08 07:47:28;;;;;;;52.60;23.00;;;;;;;-0.63;74.31;94167.56;5126658;27;20256;-78
2021/12/08 07:50:00;;;;;;;71.70;33.92;;;;;;;-0.65;74.32;94164.28;5119764;27;20087;-78
2021/12/08 07:52:29;;;;;;;73.10;36.83;;;;;;;-0.56;74.65;94174.00;5096255;28;20122;-75
2021/12/08 07:54:55;;;;;;;43.40;23.52;;;;;;;-0.52;74.53;94177.25;5114074;27;20024;-75
2021/12/08 07:57:24;;;;;;;37.35;22.20;;;;;;;-0.51;73.48;94169.50;5115092;27;20087;-76
2021/12/08 07:59:51;;;;;;;34.53;18.92;;;;;;;-0.47;74.29;94176.13;5106676;27;20035;-75
2021/12/08 08:02:16;;;;;;;30.40;18.38;;;;;;;-0.51;73.40;94181.44;5120880;27;20109;-77
2021/12/08 08:04:44;;;;;;;28.83;17.70;;;;;;;-0.43;72.96;94178.50;5112874;27;20177;-83
2021/12/08 08:07:10;;;;;;;30.13;16.85;;;;;;;-0.36;74.18;94193.44;5101478;28;20047;-75
2021/12/08 08:09:40;;;;;;;28.27;16.05;;;;;;;-0.38;73.03;94179.94;5103846;28;20521;-75
2021/12/08 08:12:07;;;;;;;30.95;17.70;;;;;;;-0.51;73.80;94189.91;5132565;27;20424;-78
2021/12/08 08:14:39;;;;;;;28.60;16.08;;;;;;;-0.40;73.89;94191.13;5123750;27;20047;-76
2021/12/08 08:17:10;;;;;;;31.10;16.65;;;;;;;-0.34;74.22;94189.06;5113600;27;20058;-76
2021/12/08 08:19:42;;;;;;;29.80;15.60;;;;;;;-0.33;73.46;94197.59;5111702;27;20186;-76
2021/12/08 08:22:09;;;;;;;26.15;15.38;;;;;;;-0.26;74.36;94199.72;5132710;27;20064;-76
2021/12/08 08:24:34;;;;;;;29.90;15.88;;;;;;;-0.16;73.50;94200.09;5121348;27;20042;-76
2021/12/08 08:27:01;;;;;;;30.60;16.65;;;;;;;-0.15;73.22;94196.63;5110157;27;20423;-76
2021/12/08 08:29:27;;;;;;;25.80;13.27;;;;;;;-0.11;71.75;94200.69;5098414;27;20031;-76
2021/12/08 08:31:59;;;;;;;25.17;13.95;;;;;;;-0.10;71.44;94199.78;5125880;27;20035;-76
2021/12/08 08:34:33;;;;;;;22.77;14.70;;;;;;;-0.10;72.10;94202.34;5128256;27;20038;-76
2021/12/08 08:36:59;;;;;;;25.30;15.02;;;;;;;-0.33;73.89;94192.47;5092531;27;20031;-77
2021/12/08 08:39:27;;;;;;;30.25;16.08;;;;;;;-0.13;72.10;94199.94;5111145;27;20046;-76
2021/12/08 08:42:06;;;;;;;25.17;14.32;;;;;;;-0.01;72.18;94204.41;5132551;27;20370;-76
2021/12/08 08:44:39;;;;;;;24.23;14.90;;;;;;;-0.13;73.08;94189.72;5132523;27;20115;-76
2021/12/08 08:47:08;;;;;;;28.23;14.60;;;;;;;0.01;72.54;94195.88;5113096;27;20466;-76
2021/12/08 08:49:33;;;;;;;26.92;14.18;;;;;;;0.06;72.17;94188.78;5110707;27;20063;-77
2021/12/08 08:52:33;;;;;;;25.40;14.27;;;;;;;0.16;71.78;94179.72;5129383;27;20039;-76
2021/12/08 08:55:00;;;;;;;26.05;13.57;;;;;;;0.19;70.95;94189.78;5076896;27;20449;-76
2021/12/08 08:57:33;;;;;;;27.35;14.65;;;;;;;0.20;71.67;94199.13;5114790;27;20027;-76
2021/12/08 09:00:05;;;;;;;30.85;16.92;;;;;;;0.09;72.11;94192.00;5111221;27;20036;-77
2021/12/08 09:02:37;;;;;;;30.73;17.38;;;;;;;0.12;72.33;94189.28;5118298;27;20080;-76
2021/12/08 09:05:07;;;;;;;25.02;14.57;;;;;;;0.11;71.41;94186.81;5107185;27;20525;-76
2021/12/08 09:07:35;;;;;;;28.95;15.32;;;;;;;0.11;71.51;94186.81;5120831;27;20470;-76
2021/12/08 09:10:05;;;;;;;24.92;14.45;;;;;;;0.21;71.80;94193.09;5113953;27;20118;-76
2021/12/08 09:12:37;;;;;;;22.35;12.73;;;;;;;0.24;72.10;94182.72;5115418;27;20115;-76
2021/12/08 09:15:12;;;;;;;24.27;12.90;;;;;;;0.15;70.53;94184.03;5106633;27;20073;-76
2021/12/08 09:17:52;;;;;;;23.95;12.70;;;;;;;0.31;71.42;94176.38;5114310;27;20466;-76
2021/12/08 09:20:32;;;;;;;24.60;13.73;;;;;;;0.39;69.28;94171.69;5113618;27;20490;-77
2021/12/08 09:23:22;;;;;;;22.80;12.93;;;;;;;0.24;70.16;94157.16;5103735;27;20066;-76
2021/12/08 09:26:13;;;;;;;24.30;13.57;;;;;;;0.27;70.58;94162.09;5124866;27;20023;-76
2021/12/08 09:29:03;;;;;;;25.48;16.02;;;;;;;0.33;70.07;94156.66;5116858;27;20039;-76
2021/12/08 09:31:34;;;;;;;28.73;16.85;;;;;;;0.40;69.70;94158.00;5125014;27;20130;-76
2021/12/08 09:34:20;;;;;;;32.97;17.13;;;;;;;0.27;70.51;94156.19;5132178;27;20046;-77
2021/12/08 09:36:54;;;;;;;34.58;18.88;;;;;;;0.26;70.13;94145.13;5112737;27;20058;-76
2021/12/08 09:39:33;;;;;;;30.27;17.30;;;;;;;0.41;69.30;94159.63;5124217;27;20519;-78
2021/12/08 09:42:12;;;;;;;28.85;16.27;;;;;;;0.51;69.93;94159.16;5143550;27;20031;-76
2021/12/08 09:44:43;;;;;;;31.30;18.23;;;;;;;0.59;69.93;94160.38;5150885;27;20107;-75
2021/12/08 09:47:08;;;;;;;33.03;17.70;;;;;;;0.48;68.99;94149.09;5103589;27;20073;-76
2021/12/08 09:49:35;;;;;;;35.72;18.48;;;;;;;0.51;69.75;94154.03;5099361;27;20039;-77
2021/12/08 09:52:00;;;;;;;34.90;19.63;;;;;;;0.64;70.17;94160.97;5105221;27;20043;-75
2021/12/08 09:54:26;;;;;;;31.83;17.75;;;;;;;0.73;70.09;94153.72;5130860;27;20080;-76
2021/12/08 09:56:53;;;;;;;35.45;19.52;;;;;;;0.62;70.19;94142.31;5129402;27;20469;-76
2021/12/08 09:59:18;;;;;;;39.55;22.58;;;;;;;0.70;70.67;94159.81;5118191;27;20108;-76
2021/12/08 10:01:44;;;;;;;36.78;19.75;;;;;;;0.64;70.31;94144.78;5119532;27;20045;-76
2021/12/08 10:04:11;;;;;;;42.65;21.27;;;;;;;0.79;69.79;94154.19;5102403;27;20040;-75
2021/12/08 10:06:37;;;;;;;42.17;23.92;;;;;;;0.89;69.00;94141.69;5108507;27;20031;-77
2021/12/08 10:09:03;;;;;;;47.53;27.85;;;;;;;1.00;68.97;94135.97;5125728;27;20042;-76
2021/12/08 10:11:29;;;;;;;44.47;26.27;;;;;;;0.97;68.40;94154.06;5130047;27;20035;-77
2021/12/08 10:13:54;;;;;;;37.08;21.98;;;;;;;0.70;69.66;94156.41;5113444;27;20416;-78
2021/12/08 10:16:20;;;;;;;31.27;20.27;;;;;;;0.93;68.42;94158.53;5109989;27;20038;-78
2021/12/08 10:18:46;;;;;;;36.00;19.95;;;;;;;0.82;69.83;94160.88;5095475;28;20118;-76
2021/12/08 10:21:13;;;;;;;39.92;21.17;;;;;;;0.76;69.77;94156.09;5121114;27;20491;-75
2021/12/08 10:23:39;;;;;;;42.28;23.95;;;;;;;0.81;69.89;94154.13;5129488;27;20068;-78
2021/12/08 10:26:18;;;;;;;41.10;23.08;;;;;;;0.88;68.45;94151.09;5123204;27;20084;-77
2021/12/08 10:28:45;;;;;;;36.08;21.02;;;;;;;0.99;68.55;94154.81;5116962;28;20051;-78
2021/12/08 10:31:25;;;;;;;33.78;18.02;;;;;;;1.11;67.17;94151.56;5129033;28;20031;-75
2021/12/08 10:36:58;;;;;;;36.42;19.30;;;;;;;0.73;70.20;94143.47;5128071;28;20080;-78
2021/12/08 10:39:34;;;;;;;44.67;23.65;;;;;;;0.46;70.49;94135.56;5113043;28;20100;-74
2021/12/08 10:42:23;;;;;;;39.45;21.65;;;;;;;0.71;70.01;94145.28;5129609;28;20031;-75
2021/12/08 10:45:08;;;;;;;40.80;21.70;;;;;;;0.79;71.48;94143.13;5128601;27;20027;-74
2021/12/08 10:47:46;;;;;;;44.90;25.23;;;;;;;0.83;69.54;94140.31;5123927;28;20034;-75
2021/12/08 10:55:54;;;;;;;28.02;16.13;;;;;;;1.16;67.86;94131.66;5113624;28;20074;-73
2021/12/08 10:58:24;;;;;;;29.35;15.98;;;;;;;1.21;68.24;94131.41;5110740;28;20100;-73
2021/12/08 11:00:50;;;;;;;32.22;17.50;;;;;;;1.32;67.84;94137.53;5117747;28;20076;-74
2021/12/08 11:03:16;;;;;;;34.17;18.38;;;;;;;1.29;67.63;94136.91;5124592;28;20027;-74
2021/12/08 11:05:46;;;;;;;33.65;18.73;;;;;;;1.25;68.15;94136.22;5128855;27;20035;-74
2021/12/08 11:08:26;;;;;;;33.22;19.10;;;;;;;1.19;68.46;94118.69;5115451;27;20038;-75
2021/12/08 11:11:00;;;;;;;36.78;20.42;;;;;;;1.38;68.63;94138.09;5118991;28;20048;-73
2021/12/08 11:13:56;;;;;;;33.03;19.92;;;;;;;1.36;68.06;94127.13;5129653;28;20075;-73
2021/12/08 11:16:30;;;;;;;27.05;16.20;;;;;;;1.37;67.75;94124.50;5114557;28;20043;-73
2021/12/08 11:19:08;;;;;;;30.00;15.70;;;;;;;1.53;66.82;94144.88;5110063;28;20023;-73
2021/12/08 11:21:39;;;;;;;27.77;16.80;;;;;;;1.56;66.47;94140.44;5123969;28;20033;-73
2021/12/08 11:24:19;;;;;;;27.53;16.23;;;;;;;1.56;65.83;94131.91;5130242;27;20039;-73
2021/12/08 11:26:47;;;;;;;34.05;18.83;;;;;;;1.62;66.14;94143.56;5117827;27;20350;-73
2021/12/08 11:29:24;;;;;;;27.75;16.25;;;;;;;1.56;65.88;94139.59;5113170;28;20031;-73
2021/12/08 11:31:53;;;;;;;38.55;21.70;;;;;;;1.60;66.39;94148.75;5110805;27;20027;-73
2021/12/08 11:34:24;;;;;;;33.42;17.08;;;;;;;1.31;66.86;94150.44;5133128;27;20554;-73
2021/12/08 11:37:01;;;;;;;31.15;18.15;;;;;;;1.33;67.09;94130.69;5120871;27;20036;-73
2021/12/08 11:39:31;;;;;;;26.23;16.58;;;;;;;1.37;67.30;94142.41;5097148;27;20032;-73
2021/12/08 11:42:06;;;;;;;34.53;18.98;;;;;;;1.32;67.82;94146.97;5107195;28;20035;-73
2021/12/08 11:44:31;;;;;;;32.47;18.92;;;;;;;1.39;67.91;94158.47;5113583;27;20611;-73
2021/12/08 11:47:26;;;;;;;36.08;22.13;;;;;;;1.37;68.81;94149.28;5126708;27;20047;-73
2021/12/08 11:49:54;;;;;;;36.38;21.73;;;;;;;1.49;66.74;94163.91;5108317;27;20067;-73
2021/12/08 11:52:21;;;;;;;35.22;18.75;;;;;;;1.51;66.71;94162.91;5133373;27;20045;-73
2021/12/08 11:54:54;;;;;;;28.42;17.02;;;;;;;1.24;66.92;94124.38;5131958;27;20492;-73
2021/12/08 11:57:24;;;;;;;29.13;17.35;;;;;;;1.37;68.48;94162.06;5104820;28;20070;-73
2021/12/08 12:00:10;;;;;;;26.83;16.55;;;;;;;1.45;67.33;94157.31;5121311;27;20046;-74
2021/12/08 12:02:52;;;;;;;42.25;28.42;;;;;;;1.53;68.21;94161.09;5112229;28;20390;-73
2021/12/08 12:05:20;;;;;;;31.20;19.60;;;;;;;1.52;67.16;94153.50;5114952;27;20031;-73
2021/12/08 12:07:46;;;;;;;30.58;18.75;;;;;;;1.58;66.46;94168.50;5111755;28;20157;-73
2021/12/08 12:10:13;;;;;;;26.88;15.15;;;;;;;1.50;66.38;94150.19;5115056;27;20066;-73
2021/12/08 12:12:40;;;;;;;27.73;16.48;;;;;;;1.62;66.36;94169.97;5134474;27;20031;-74
2021/12/08 12:15:10;;;;;;;26.13;16.52;;;;;;;1.44;66.65;94165.91;5096627;27;20064;-74
2021/12/08 12:17:36;;;;;;;23.77;14.43;;;;;;;1.53;66.11;94173.03;5121117;27;20035;-73
2021/12/08 12:20:05;;;;;;;27.30;15.60;;;;;;;1.38;67.15;94167.06;5113489;27;20449;-74